NATURA VA

 INFORMACIÓN METAR y TAF
METAR FOR EGJJ
ADDS - METARS form results

(2357 UTC 17 June 2019)
Data provider http://aviationweather.gov/metar/data/
 
METAR text: EGJJ 172350Z AUTO 09010KT 9999 NCD 12/10 Q1016
Conditions at: EGJJ (JERSEY AIRPORT , GB) observed 2350 UTC 17 June 2019
Temperature: 12.0°C (54°F)
Dewpoint: 10.0°C (50°F) [RH = 88%]
Pressure (altimeter): 30.00 inches Hg (1016.0 mb)
Winds: from the E (90 degrees) at 12 MPH (10 knots; 5.1 m/s)
Visibility: 6 or more miles (10+ km)
Ceiling: at least 12,000 feet AGL
Clouds: sky clear below 12,000 feet AGL
Weather: no significant weather observed at this time

METAR text: EGJJ 172320Z AUTO 09010KT 9999 NCD 13/10 Q1016
Conditions at: EGJJ (JERSEY AIRPORT , GB) observed 2320 UTC 17 June 2019
Temperature: 13.0°C (55°F)
Dewpoint: 10.0°C (50°F) [RH = 82%]
Pressure (altimeter): 30.00 inches Hg (1016.0 mb)
Winds: from the E (90 degrees) at 12 MPH (10 knots; 5.1 m/s)
Visibility: 6 or more miles (10+ km)
Ceiling: at least 12,000 feet AGL
Clouds: sky clear below 12,000 feet AGL
Weather: no significant weather observed at this time

Forecast for: EGJJ (JERSEY AIRPORT , GB)
Text: TAF EGJJ 172304Z 1800/1809 06011KT CAVOK
Forecast period: 0000 to 0900 UTC 18 June 2019
Forecast type: FROM: standard forecast or significant change
Winds: from the ENE (60 degrees) at 13 MPH (11 knots; 5.7 m/s)
Visibility: 6 or more miles 10+ km)
Ceiling: unknown
Clouds: missing
Weather: NSW  (no significant weather)
Text: PROB30
Forecast period: 0500 to 0900 UTC 18 June 2019
Forecast type: TEMPORARY: The following changes expected for less than half the time period
Visibility: 4 miles (7 km)
Ceiling: at least 12,000 feet AGL
Clouds: few clouds at 4500 feet AGL
Weather: SHRA  (rain showers)

 MAPA DE AEROPUERTO

 INFORMACIÓN DE PISTA
Pista 09 Longitud 5597 ft Ancho 151 ft
Elevación 270 ft Umbral desplazado 200 ft Rumbo de pista 83
Pista 27 Longitud 5597 ft Ancho 151 ft
Elevación 271 ft Umbral desplazado 299 ft Rumbo de pista 263

 FRECUANCIAS DEL AEROPUERTO
Tipo APP Nombre APP Frecuencia 120.3 MHZ
Tipo ATIS Nombre INFO Frecuencia 112.2 MHZ
Tipo GND Nombre GND Frecuencia 121.9 MHZ
Tipo RDR Nombre RDR Frecuencia 118.55 MHZ
Tipo TWR Nombre TWR Frecuencia 119.45 MHZ

 RADIO AYUDAS DEL AEROPUERTO
Tipo VOR-DME Nombre Jersey Frecuencia 112200 KHZ



Powered by Virtual Airlines Manager [v2.6.2]